首页
METAR-TAF:

METAR-TAF

机场 :

阿拉木图国际机场

阿拉木圖, 哈萨克斯坦

纬度: 43-14N, 经度: 076-56E, 海拔: 847米

当前天气观测

该预报发布于21分钟前的20:30 UTC
风速4节,风向南转南东,在东南西南之间变化
温度 19°C
湿度 56%
气压 1006 hPa
能见度10公里或以上
少量云层高于10000英尺

METAR: UAAA 192030Z 16002MPS 140V230 9999 FEW100 19/10 Q1006 R23L/CLRD65 NOSIG

时间: 02:51 (20:51 UTC)

预报

该预报发布于3小时和51分钟前的17:00 UTC
预报有效从19日的 18点(UTC)到 20日的 18点(UTC)
风速10节,风向东北
能见度10公里或以上
散云层高于5000英尺, 积雨云.
多云层高于10000英尺
短暂存在
从 19日的 18点(UTC)到 19日的 24点(UTC)
风速10节,风向南转南东
能見度: 3000
短暂存在
从 20日的 06点(UTC)到 20日的 16点(UTC)
风速12节,风向西南
几率 40% :
短暂存在
从 20日的 08点(UTC)到 20日的 16点(UTC)
雷暴, 小雨

TAF: UAAA 191700Z 1918/2018 04005MPS 9999 SCT050CB BKN100 TX35/2009Z TN19/2001Z TEMPO 1918/1924 16005MPS 3000 FU TEMPO 2006/2016 23006MPS PROB40 TEMPO 2008/2016 -TSRA

超过4000个机场的气象观测和天气预报(METAR&TAF报告)。

可查询的气象台以黄色和红色小点在地图上表示。

将鼠标移到小点上方,可查看气象台名称。

然后点击查看天气观测和预报。

如需切换地图:点击带黑十字的绿色按钮放大地图;点击带横线的绿色按钮缩小地图;或者点击绿色箭头查看邻近地区的地图。


METAR-TAF: